Главная страница
METAR-TAF:

METAR-TAF

Аэропорты :

Рига, Латвия

широта: 56-55N, долгота: 023-58E, высота над уровнем моря: 10 м

Текущие метеонаблюдения

Эта сводка был подготовлена 19 минут назад, в 22:20 UTC
Ветер 1 Узел переменных направлений
Температура -3°C
Влажность 80%
Давление 1020 hPa
Видимость 10 км и более
Нет облачности ниже 1500 м, и нет кучево-дождевой облачности

METAR: EVRA 102220Z VRB01KT CAVOK M03/M06 Q1020 NOSIG

Время: 01:39 (22:39 UTC)

Прогноз

Эта сводка был подготовлена 2 часа и 39 минут назад, в 20:00 UTC
Прогноз действительный с 10-го 21 UTC до 11-го 21 UTC
Ветер 7 Узел от юго-восточный
Видимость 10 км и более
Отдельные облака на высоте 2500 фута
временами
С 11-го 00 UTC до 11-го 06 UTC
Видимость: 3000 м
дымка

TAF: EVRA 102000Z 1021/1121 13007KT 9999 SCT025 TEMPO 1100/1106 3000 BR

Метеонаблюдения и прогнозы для более 4000 аэропортов (сводки METAR и TAF).

Имеющиеся станции представлены на карте желтыми и красными точками.

Чтобы увидеть название станции, наведите на нее мышь.

Затем щелкните, чтобы увидеть метеонаблюдения и метеопрогнозы.

Управление картой: чтобы увеличить масштаб, щелкните зеленые кнопки с черным крестиком; чтобы уменьшить масштаб, щелкните зеленую кнопку с тире; для просмотра соседних карт щелкайте зеленые стрелки.


METAR-TAF: